createdAt,value
2019-05-09T00:00:14.938Z,11.13
2019-05-09T00:05:15.168Z,11.06
2019-05-09T00:10:14.927Z,11
2019-05-09T00:15:14.935Z,10.88
2019-05-09T00:20:14.966Z,10.75
2019-05-09T00:25:14.940Z,10.69
2019-05-09T00:30:14.931Z,10.63
2019-05-09T00:35:14.929Z,10.63
2019-05-09T00:40:14.878Z,10.75
2019-05-09T00:45:14.963Z,10.81
2019-05-09T00:50:14.936Z,10.81
2019-05-09T00:55:14.871Z,10.88
2019-05-09T01:00:14.912Z,10.88
2019-05-09T01:05:15.039Z,10.88
2019-05-09T01:10:14.948Z,10.88
2019-05-09T01:15:14.908Z,10.94
2019-05-09T01:20:14.909Z,10.94
2019-05-09T01:25:14.902Z,10.94
2019-05-09T01:30:14.859Z,10.94
2019-05-09T01:35:14.919Z,10.88
2019-05-09T01:40:14.856Z,10.88
2019-05-09T01:45:14.880Z,10.81
2019-05-09T01:50:14.876Z,10.81
2019-05-09T01:55:14.934Z,10.81
2019-05-09T02:00:14.930Z,10.75
2019-05-09T02:05:14.854Z,10.75
2019-05-09T02:10:14.868Z,10.69
2019-05-09T02:15:14.959Z,10.63
2019-05-09T02:20:14.902Z,10.63
2019-05-09T02:25:14.910Z,10.56
2019-05-09T02:30:15.557Z,10.5
2019-05-09T02:35:14.816Z,10.5
2019-05-09T02:40:17.975Z,10.5
2019-05-09T02:45:14.825Z,10.56
2019-05-09T02:50:14.911Z,10.56
2019-05-09T02:55:14.918Z,10.63
2019-05-09T03:00:14.810Z,10.63
2019-05-09T03:05:14.802Z,10.63
2019-05-09T03:10:14.881Z,10.69
2019-05-09T03:15:14.842Z,10.69
2019-05-09T03:20:14.891Z,10.69
2019-05-09T03:25:14.824Z,10.63
2019-05-09T03:30:14.786Z,10.63
2019-05-09T03:35:17.054Z,10.63
2019-05-09T03:40:14.829Z,10.63
2019-05-09T03:45:14.833Z,10.69
2019-05-09T03:50:14.861Z,10.69
2019-05-09T03:55:14.768Z,10.75
2019-05-09T04:00:14.829Z,10.75
2019-05-09T04:05:14.837Z,10.75
2019-05-09T04:10:14.767Z,10.75
2019-05-09T04:15:18.717Z,10.81
2019-05-09T04:20:14.803Z,10.75
2019-05-09T04:25:14.754Z,10.69
2019-05-09T04:30:14.793Z,10.75
2019-05-09T04:35:14.823Z,10.75
2019-05-09T04:40:14.775Z,10.75
2019-05-09T04:45:14.828Z,10.75
2019-05-09T04:50:15.277Z,10.75
2019-05-09T04:55:14.829Z,10.81
2019-05-09T05:00:14.738Z,10.81
2019-05-09T05:05:14.827Z,10.94
2019-05-09T05:10:14.816Z,11.06
2019-05-09T05:15:14.770Z,11.19
2019-05-09T05:20:14.730Z,11.25
2019-05-09T05:25:14.755Z,11.31
2019-05-09T05:30:14.805Z,11.25
2019-05-09T05:35:14.799Z,11.25
2019-05-09T05:40:14.751Z,11.31
2019-05-09T05:45:14.804Z,11.31
2019-05-09T05:50:14.749Z,11.31
2019-05-09T05:55:14.756Z,11.38
2019-05-09T06:00:14.789Z,11.5
2019-05-09T06:05:14.698Z,11.63
2019-05-09T06:10:14.784Z,11.75
2019-05-09T06:15:14.782Z,11.81
2019-05-09T06:20:14.749Z,11.75
2019-05-09T06:25:14.758Z,11.75
2019-05-09T06:30:14.700Z,11.88
2019-05-09T06:35:14.754Z,12.19
2019-05-09T06:40:14.675Z,12.31
2019-05-09T06:45:14.753Z,12.19
2019-05-09T06:50:14.719Z,12.19
2019-05-09T06:55:14.717Z,12.44
2019-05-09T07:00:14.736Z,12.75
2019-05-09T07:05:14.672Z,13.19
2019-05-09T07:10:14.729Z,13.63
2019-05-09T07:15:14.700Z,14.44
2019-05-09T07:20:14.750Z,14.56
2019-05-09T07:25:14.652Z,15.06
2019-05-09T07:30:14.728Z,15.69
2019-05-09T07:35:14.727Z,16.31
2019-05-09T07:40:14.682Z,15.88
2019-05-09T07:45:14.734Z,15.19
2019-05-09T07:50:14.670Z,15.13
2019-05-09T07:55:14.632Z,15.81
2019-05-09T08:00:14.684Z,16.25
2019-05-09T08:05:14.683Z,15.75
2019-05-09T08:10:14.715Z,16.06
2019-05-09T08:15:17.307Z,16.25
2019-05-09T08:20:14.686Z,16.63
2019-05-09T08:25:14.625Z,16
2019-05-09T08:30:14.791Z,15.44
2019-05-09T08:35:14.663Z,15.56
2019-05-09T08:40:14.698Z,16.31
2019-05-09T08:45:25.182Z,17.44
2019-05-09T08:50:14.678Z,17.81
2019-05-09T08:55:14.599Z,17.75
2019-05-09T09:00:14.648Z,17.88
2019-05-09T09:05:14.681Z,18.13
2019-05-09T09:10:14.629Z,17.63
2019-05-09T09:15:14.673Z,17.75
2019-05-09T09:20:14.638Z,18.13
2019-05-09T09:25:14.668Z,18.81
2019-05-09T09:30:20.102Z,18.94
2019-05-09T09:35:14.626Z,18.44
2019-05-09T09:40:14.727Z,18.31
2019-05-09T09:45:14.621Z,17
2019-05-09T09:50:14.621Z,16.5
2019-05-09T09:55:14.658Z,16.44
2019-05-09T10:00:14.571Z,16.88
2019-05-09T10:05:14.648Z,17.56
2019-05-09T10:10:14.574Z,17.13
2019-05-09T10:15:14.614Z,17.38
2019-05-09T10:20:14.725Z,17.69
2019-05-09T10:25:14.597Z,18.25
2019-05-09T10:30:14.594Z,18.75
2019-05-09T10:35:14.632Z,18.06
2019-05-09T10:40:14.582Z,18.38
2019-05-09T10:45:14.639Z,19
2019-05-09T10:50:14.589Z,18.19
2019-05-09T10:55:14.607Z,17.56
2019-05-09T11:00:14.546Z,18.25
2019-05-09T11:05:14.569Z,19.31
2019-05-09T11:10:25.362Z,19
2019-05-09T11:15:14.578Z,18.19
2019-05-09T11:20:14.655Z,18.69
2019-05-09T11:25:14.557Z,18.88
2019-05-09T11:30:14.569Z,18.56
2019-05-09T11:35:14.559Z,18.5
2019-05-09T11:40:14.592Z,18.38
2019-05-09T11:45:14.607Z,17.94
2019-05-09T11:50:14.551Z,17.81
2019-05-09T11:55:28.428Z,18.31
2019-05-09T12:00:14.623Z,18.5
2019-05-09T12:05:14.544Z,18.44
2019-05-09T12:10:14.534Z,18.06
2019-05-09T12:15:14.533Z,17.94
2019-05-09T12:20:14.588Z,18.19
2019-05-09T12:25:14.488Z,18
2019-05-09T12:30:14.582Z,17.88
2019-05-09T12:35:14.523Z,18.19
2019-05-09T12:40:14.509Z,18.5
2019-05-09T12:45:14.534Z,19.13
2019-05-09T12:50:14.528Z,19.38
2019-05-09T12:55:14.516Z,18.94
2019-05-09T13:00:14.558Z,18.56
2019-05-09T13:05:14.508Z,19.06
2019-05-09T13:10:14.466Z,18.94
2019-05-09T13:15:14.582Z,18.56
2019-05-09T13:20:14.551Z,18.13
2019-05-09T13:25:14.538Z,18.63
2019-05-09T13:30:14.449Z,19
2019-05-09T13:35:14.517Z,19.31
2019-05-09T13:40:14.521Z,19.13
2019-05-09T13:45:14.495Z,18.44
2019-05-09T13:50:14.527Z,18.13
2019-05-09T13:55:14.517Z,18.31
2019-05-09T14:00:14.479Z,18.38
2019-05-09T14:05:14.524Z,18.63
2019-05-09T14:10:14.490Z,19
2019-05-09T14:15:14.482Z,18.81
2019-05-09T14:20:14.540Z,18.56
2019-05-09T14:25:14.507Z,18.25
2019-05-09T14:30:14.421Z,18.38
2019-05-09T14:35:14.506Z,18.81
2019-05-09T14:40:14.485Z,18.75
2019-05-09T14:45:14.487Z,18.25
2019-05-09T14:50:14.405Z,18.19
2019-05-09T14:55:14.483Z,18.19
2019-05-09T15:00:14.492Z,18.25
2019-05-09T15:05:14.470Z,18.19
2019-05-09T15:10:14.471Z,18.19
2019-05-09T15:15:14.439Z,18.38
2019-05-09T15:20:14.424Z,18.19
2019-05-09T15:25:14.486Z,17.94
2019-05-09T15:30:14.410Z,17.94
2019-05-09T15:35:14.437Z,18
2019-05-09T15:40:14.428Z,18
2019-05-09T15:45:14.414Z,18.06
2019-05-09T15:50:22.141Z,17.94
2019-05-09T15:55:14.407Z,17.69
2019-05-09T16:00:14.447Z,17.69
2019-05-09T16:05:14.414Z,17.81
2019-05-09T16:10:14.443Z,17.81
2019-05-09T16:15:14.417Z,18
2019-05-09T16:20:14.450Z,18.25
2019-05-09T16:25:14.387Z,18.44
2019-05-09T16:30:14.444Z,18.38
2019-05-09T16:35:14.400Z,18.13
2019-05-09T16:40:14.398Z,17.94
2019-05-09T16:45:14.424Z,17.63
2019-05-09T16:50:14.397Z,17.38
2019-05-09T16:55:14.433Z,17.13
2019-05-09T17:00:14.408Z,16.81
2019-05-09T17:05:14.341Z,16.31
2019-05-09T17:10:14.386Z,16.13
2019-05-09T17:15:14.395Z,15.94
2019-05-09T17:20:14.497Z,15.88
2019-05-09T17:25:14.322Z,15.81
2019-05-09T17:30:14.329Z,15.81
2019-05-09T17:35:14.391Z,15.75
2019-05-09T17:40:16.745Z,15.69
2019-05-09T17:45:14.381Z,15.63
2019-05-09T17:50:14.305Z,15.5
2019-05-09T17:55:14.312Z,15.44
2019-05-09T18:00:14.362Z,15.38
2019-05-09T18:05:14.387Z,15.25
2019-05-09T18:10:14.398Z,15.19
2019-05-09T18:15:14.313Z,15.25
2019-05-09T18:20:14.360Z,15.25
2019-05-09T18:25:14.367Z,15.19
2019-05-09T18:30:14.357Z,15.13
2019-05-09T18:35:14.333Z,14.94
2019-05-09T18:40:14.327Z,14.81
2019-05-09T18:45:14.310Z,14.63
2019-05-09T18:50:14.274Z,14.56
2019-05-09T18:55:14.485Z,14.56
2019-05-09T19:00:14.299Z,14.56
2019-05-09T19:05:14.340Z,14.44
2019-05-09T19:10:14.267Z,14.38
2019-05-09T19:15:14.345Z,14.25
2019-05-09T19:20:14.302Z,14.13
2019-05-09T19:25:14.341Z,14
2019-05-09T19:30:14.284Z,13.94
2019-05-09T19:35:14.326Z,13.81
2019-05-09T19:40:19.526Z,13.75
2019-05-09T19:45:14.287Z,13.63
2019-05-09T19:50:14.321Z,13.56
2019-05-09T19:55:14.331Z,13.5
2019-05-09T20:00:14.289Z,13.44
2019-05-09T20:05:14.272Z,13.44
2019-05-09T20:10:14.282Z,13.44
2019-05-09T20:15:14.303Z,13.44
2019-05-09T20:20:14.270Z,13.44
2019-05-09T20:25:14.312Z,13.38
2019-05-09T20:30:14.245Z,13.38
2019-05-09T20:35:14.325Z,13.31
2019-05-09T20:40:14.307Z,13.19
2019-05-09T20:45:14.259Z,13.13
2019-05-09T20:50:14.286Z,13.06
2019-05-09T20:55:14.204Z,13
2019-05-09T21:00:14.248Z,13
2019-05-09T21:05:14.256Z,12.88
2019-05-09T21:10:14.273Z,12.81
2019-05-09T21:15:14.326Z,12.81
2019-05-09T21:20:14.234Z,12.75
2019-05-09T21:25:14.196Z,12.69
2019-05-09T21:30:14.265Z,12.63
2019-05-09T21:35:14.264Z,12.5
2019-05-09T21:40:14.213Z,12.44
2019-05-09T21:45:14.261Z,12.38
2019-05-09T21:50:14.229Z,12.31
2019-05-09T21:55:14.255Z,12.19
2019-05-09T22:00:14.259Z,12.13
2019-05-09T22:05:14.200Z,12
2019-05-09T22:10:14.219Z,11.94
2019-05-09T22:15:14.180Z,11.94
2019-05-09T22:20:14.260Z,11.88
2019-05-09T22:25:14.201Z,11.81
2019-05-09T22:30:14.233Z,11.81
2019-05-09T22:35:14.157Z,11.75
2019-05-09T22:40:14.187Z,11.69
2019-05-09T22:45:14.227Z,11.5
2019-05-09T22:50:14.187Z,11.38
2019-05-09T22:55:14.212Z,11.19
2019-05-09T23:00:14.140Z,11.06
2019-05-09T23:05:14.136Z,11
2019-05-09T23:10:14.214Z,11
2019-05-09T23:15:14.212Z,11
2019-05-09T23:20:14.169Z,11.06
2019-05-09T23:25:14.187Z,11.06
2019-05-09T23:30:14.115Z,11.13
2019-05-09T23:35:14.198Z,11.13
2019-05-09T23:40:14.142Z,11.06
2019-05-09T23:45:14.189Z,11.06
2019-05-09T23:50:14.169Z,11.06
2019-05-09T23:55:14.140Z,11
